sensor_id;sensor_type;location;lat;lon;timestamp;pressure;altitude;pressure_sealevel;temperature
49785;BMP280;35679;38.732;-121.358;2023-04-24T00:00:58;100569.22;;;24.02
49785;BMP280;35679;38.732;-121.358;2023-04-24T00:03:49;100574.31;;;23.99
49785;BMP280;35679;38.732;-121.358;2023-04-24T00:06:39;100574.84;;;24.01
49785;BMP280;35679;38.732;-121.358;2023-04-24T00:09:31;100561.94;;;24.03
49785;BMP280;35679;38.732;-121.358;2023-04-24T00:12:20;100563.00;;;24.02
49785;BMP280;35679;38.732;-121.358;2023-04-24T00:15:11;100563.31;;;24.05
49785;BMP280;35679;38.732;-121.358;2023-04-24T00:18:00;100567.63;;;24.06
49785;BMP280;35679;38.732;-121.358;2023-04-24T00:20:52;100569.00;;;24.09
49785;BMP280;35679;38.732;-121.358;2023-04-24T00:23:41;100561.72;;;24.09
49785;BMP280;35679;38.732;-121.358;2023-04-24T00:26:31;100563.59;;;24.09
49785;BMP280;35679;38.732;-121.358;2023-04-24T00:29:20;100556.31;;;24.09
49785;BMP280;35679;38.732;-121.358;2023-04-24T00:32:10;100559.56;;;24.11
49785;BMP280;35679;38.732;-121.358;2023-04-24T00:34:59;100558.50;;;24.12
49785;BMP280;35679;38.732;-121.358;2023-04-24T00:37:49;100558.50;;;24.12
49785;BMP280;35679;38.732;-121.358;2023-04-24T00:40:39;100554.75;;;24.13
49785;BMP280;35679;38.732;-121.358;2023-04-24T00:43:29;100560.69;;;24.15
49785;BMP280;35679;38.732;-121.358;2023-04-24T00:46:19;100553.69;;;24.19
49785;BMP280;35679;38.732;-121.358;2023-04-24T00:49:08;100565.59;;;24.23
49785;BMP280;35679;38.732;-121.358;2023-04-24T00:51:58;100548.88;;;24.21
49785;BMP280;35679;38.732;-121.358;2023-04-24T00:54:48;100557.22;;;24.20
49785;BMP280;35679;38.732;-121.358;2023-04-24T00:57:38;100555.59;;;24.19
49785;BMP280;35679;38.732;-121.358;2023-04-24T01:00:28;100561.53;;;24.21
49785;BMP280;35679;38.732;-121.358;2023-04-24T01:03:17;100564.25;;;24.21
49785;BMP280;35679;38.732;-121.358;2023-04-24T01:06:09;100563.16;;;24.22
49785;BMP280;35679;38.732;-121.358;2023-04-24T01:08:58;100560.22;;;24.23
49785;BMP280;35679;38.732;-121.358;2023-04-24T01:11:50;100566.66;;;24.22
49785;BMP280;35679;38.732;-121.358;2023-04-24T01:14:39;100566.41;;;24.24
49785;BMP280;35679;38.732;-121.358;2023-04-24T01:17:29;100566.41;;;24.24
49785;BMP280;35679;38.732;-121.358;2023-04-24T01:20:18;100548.34;;;24.24
49785;BMP280;35679;38.732;-121.358;2023-04-24T01:23:09;100559.19;;;24.29
49785;BMP280;35679;38.732;-121.358;2023-04-24T01:25:59;100566.44;;;24.29
49785;BMP280;35679;38.732;-121.358;2023-04-24T01:28:48;100565.34;;;24.25
49785;BMP280;35679;38.732;-121.358;2023-04-24T01:31:39;100566.13;;;24.25
49785;BMP280;35679;38.732;-121.358;2023-04-24T01:34:28;100562.09;;;24.28
49785;BMP280;35679;38.732;-121.358;2023-04-24T01:37:18;100562.69;;;24.30
49785;BMP280;35679;38.732;-121.358;2023-04-24T01:40:09;100555.66;;;24.29
49785;BMP280;35679;38.732;-121.358;2023-04-24T01:42:59;100559.41;;;24.28
49785;BMP280;35679;38.732;-121.358;2023-04-24T01:45:50;100557.03;;;24.31
49785;BMP280;35679;38.732;-121.358;2023-04-24T01:48:39;100554.59;;;24.30
49785;BMP280;35679;38.732;-121.358;2023-04-24T01:51:29;100558.09;;;24.30
49785;BMP280;35679;38.732;-121.358;2023-04-24T01:54:19;100563.47;;;24.30
49785;BMP280;35679;38.732;-121.358;2023-04-24T01:57:08;100553.53;;;24.31
49785;BMP280;35679;38.732;-121.358;2023-04-24T01:59:58;100557.59;;;24.33
49785;BMP280;35679;38.732;-121.358;2023-04-24T02:02:48;100564.31;;;24.31
49785;BMP280;35679;38.732;-121.358;2023-04-24T02:05:38;100573.19;;;24.31
49785;BMP280;35679;38.732;-121.358;2023-04-24T02:08:28;100572.09;;;24.27
49785;BMP280;35679;38.732;-121.358;2023-04-24T02:11:17;100575.09;;;24.31
49785;BMP280;35679;38.732;-121.358;2023-04-24T02:14:07;100568.06;;;24.30
49785;BMP280;35679;38.732;-121.358;2023-04-24T02:16:59;100574.25;;;24.30
49785;BMP280;35679;38.732;-121.358;2023-04-24T02:19:49;100579.88;;;24.24
49785;BMP280;35679;38.732;-121.358;2023-04-24T02:22:39;100580.16;;;24.22
49785;BMP280;35679;38.732;-121.358;2023-04-24T02:25:28;100574.19;;;24.20
49785;BMP280;35679;38.732;-121.358;2023-04-24T02:28:17;100577.41;;;24.17
49785;BMP280;35679;38.732;-121.358;2023-04-24T02:31:06;100583.34;;;24.19
49785;BMP280;35679;38.732;-121.358;2023-04-24T02:33:56;100589.28;;;24.16
49785;BMP280;35679;38.732;-121.358;2023-04-24T02:36:45;100590.59;;;24.14
49785;BMP280;35679;38.732;-121.358;2023-04-24T02:39:35;100593.56;;;24.12
49785;BMP280;35679;38.732;-121.358;2023-04-24T02:42:24;100590.28;;;24.10
49785;BMP280;35679;38.732;-121.358;2023-04-24T02:45:14;100584.38;;;24.08
49785;BMP280;35679;38.732;-121.358;2023-04-24T02:48:03;100591.66;;;24.13
49785;BMP280;35679;38.732;-121.358;2023-04-24T02:50:53;100597.59;;;24.10
49785;BMP280;35679;38.732;-121.358;2023-04-24T02:53:42;100590.81;;;24.07
49785;BMP280;35679;38.732;-121.358;2023-04-24T02:56:31;100592.16;;;24.05
49785;BMP280;35679;38.732;-121.358;2023-04-24T02:59:21;100593.22;;;24.04
49785;BMP280;35679;38.732;-121.358;2023-04-24T03:02:10;100600.72;;;24.02
49785;BMP280;35679;38.732;-121.358;2023-04-24T03:05:00;100599.38;;;23.99
49785;BMP280;35679;38.732;-121.358;2023-04-24T03:07:49;100610.97;;;24.00
49785;BMP280;35679;38.732;-121.358;2023-04-24T03:10:41;100609.09;;;24.00
49785;BMP280;35679;38.732;-121.358;2023-04-24T03:13:34;100621.72;;;23.95
49785;BMP280;35679;38.732;-121.358;2023-04-24T03:16:24;100614.97;;;23.92
49785;BMP280;35679;38.732;-121.358;2023-04-24T03:19:15;100619.78;;;23.90
49785;BMP280;35679;38.732;-121.358;2023-04-24T03:22:18;100617.09;;;23.90
49785;BMP280;35679;38.732;-121.358;2023-04-24T03:25:07;100626.50;;;23.88
49785;BMP280;35679;38.732;-121.358;2023-04-24T03:27:58;100635.09;;;23.85
49785;BMP280;35679;38.732;-121.358;2023-04-24T03:30:54;100639.66;;;23.84
49785;BMP280;35679;38.732;-121.358;2023-04-24T03:33:46;100642.88;;;23.81
49785;BMP280;35679;38.732;-121.358;2023-04-24T03:36:36;100642.56;;;23.78
49785;BMP280;35679;38.732;-121.358;2023-04-24T03:39:27;100646.84;;;23.74
49785;BMP280;35679;38.732;-121.358;2023-04-24T03:42:16;100657.03;;;23.72
49785;BMP280;35679;38.732;-121.358;2023-04-24T03:45:15;100653.28;;;23.73
49785;BMP280;35679;38.732;-121.358;2023-04-24T03:48:08;100668.41;;;23.74
49785;BMP280;35679;38.732;-121.358;2023-04-24T03:50:57;100667.47;;;23.69
49785;BMP280;35679;38.732;-121.358;2023-04-24T03:53:48;100665.56;;;23.64
49785;BMP280;35679;38.732;-121.358;2023-04-24T03:56:41;100676.56;;;23.63
49785;BMP280;35679;38.732;-121.358;2023-04-24T03:59:31;100684.34;;;23.59
49785;BMP280;35679;38.732;-121.358;2023-04-24T04:02:35;100701.59;;;23.58
49785;BMP280;35679;38.732;-121.358;2023-04-24T04:05:25;100703.97;;;23.55
49785;BMP280;35679;38.732;-121.358;2023-04-24T04:08:14;100716.38;;;23.56
49785;BMP280;35679;38.732;-121.358;2023-04-24T04:11:04;100715.22;;;23.52
49785;BMP280;35679;38.732;-121.358;2023-04-24T04:13:53;100720.84;;;23.50
49785;BMP280;35679;38.732;-121.358;2023-04-24T04:16:43;100719.47;;;23.48
49785;BMP280;35679;38.732;-121.358;2023-04-24T04:19:33;100720.81;;;23.45
49785;BMP280;35679;38.732;-121.358;2023-04-24T04:22:23;100733.47;;;23.45
49785;BMP280;35679;38.732;-121.358;2023-04-24T04:25:13;100730.44;;;23.41
49785;BMP280;35679;38.732;-121.358;2023-04-24T04:28:03;100734.47;;;23.39
49785;BMP280;35679;38.732;-121.358;2023-04-24T04:30:53;100735.50;;;23.38
49785;BMP280;35679;38.732;-121.358;2023-04-24T04:33:43;100738.47;;;23.36
49785;BMP280;35679;38.732;-121.358;2023-04-24T04:36:33;100723.63;;;23.34
49785;BMP280;35679;38.732;-121.358;2023-04-24T04:39:39;100725.31;;;23.40
49785;BMP280;35679;38.732;-121.358;2023-04-24T04:42:35;100721.50;;;23.36
49785;BMP280;35679;38.732;-121.358;2023-04-24T04:45:29;100725.25;;;23.35
49785;BMP280;35679;38.732;-121.358;2023-04-24T04:48:58;100725.72;;;23.32
49785;BMP280;35679;38.732;-121.358;2023-04-24T04:51:49;100729.50;;;23.31
49785;BMP280;35679;38.732;-121.358;2023-04-24T04:54:41;100743.72;;;23.26
49785;BMP280;35679;38.732;-121.358;2023-04-24T04:57:31;100746.41;;;23.26
49785;BMP280;35679;38.732;-121.358;2023-04-24T05:00:21;100751.78;;;23.26
49785;BMP280;35679;38.732;-121.358;2023-04-24T05:03:14;100758.22;;;23.25
49785;BMP280;35679;38.732;-121.358;2023-04-24T05:06:16;100757.34;;;23.20
49785;BMP280;35679;38.732;-121.358;2023-04-24T05:09:06;100755.72;;;23.19
49785;BMP280;35679;38.732;-121.358;2023-04-24T05:12:06;100759.72;;;23.16
49785;BMP280;35679;38.732;-121.358;2023-04-24T05:15:03;100757.03;;;23.16
49785;BMP280;35679;38.732;-121.358;2023-04-24T05:17:52;100764.19;;;23.11
49785;BMP280;35679;38.732;-121.358;2023-04-24T05:20:47;100773.25;;;23.05
49785;BMP280;35679;38.732;-121.358;2023-04-24T05:23:36;100773.19;;;23.00
49785;BMP280;35679;38.732;-121.358;2023-04-24T05:26:25;100774.25;;;22.99
49785;BMP280;35679;38.732;-121.358;2023-04-24T05:29:17;100772.03;;;22.96
49785;BMP280;35679;38.732;-121.358;2023-04-24T05:32:08;100768.19;;;22.92
49785;BMP280;35679;38.732;-121.358;2023-04-24T05:34:57;100770.88;;;22.92
49785;BMP280;35679;38.732;-121.358;2023-04-24T05:37:46;100780.00;;;22.91
49785;BMP280;35679;38.732;-121.358;2023-04-24T05:40:37;100783.22;;;22.88
49785;BMP280;35679;38.732;-121.358;2023-04-24T05:43:26;100786.63;;;22.84
49785;BMP280;35679;38.732;-121.358;2023-04-24T05:46:15;100782.88;;;22.85
49785;BMP280;35679;38.732;-121.358;2023-04-24T05:49:05;100770.22;;;22.85
49785;BMP280;35679;38.732;-121.358;2023-04-24T05:51:55;100781.25;;;22.84
49785;BMP280;35679;38.732;-121.358;2023-04-24T05:54:44;100780.66;;;22.82
49785;BMP280;35679;38.732;-121.358;2023-04-24T05:57:38;100774.72;;;22.80
49785;BMP280;35679;38.732;-121.358;2023-04-24T06:00:28;100769.81;;;22.77
49785;BMP280;35679;38.732;-121.358;2023-04-24T06:03:25;100768.22;;;22.76
49785;BMP280;35679;38.732;-121.358;2023-04-24T06:06:16;100778.63;;;22.72
49785;BMP280;35679;38.732;-121.358;2023-04-24T06:09:05;100782.63;;;22.70
49785;BMP280;35679;38.732;-121.358;2023-04-24T06:11:55;100785.56;;;22.68
49785;BMP280;35679;38.732;-121.358;2023-04-24T06:14:51;100787.69;;;22.66
49785;BMP280;35679;38.732;-121.358;2023-04-24T06:17:59;100790.84;;;22.63
49785;BMP280;35679;38.732;-121.358;2023-04-24T06:20:48;100790.28;;;22.61
49785;BMP280;35679;38.732;-121.358;2023-04-24T06:23:38;100795.09;;;22.59
49785;BMP280;35679;38.732;-121.358;2023-04-24T06:26:28;100802.00;;;22.55
49785;BMP280;35679;38.732;-121.358;2023-04-24T06:29:17;100795.00;;;22.54
49785;BMP280;35679;38.732;-121.358;2023-04-24T06:32:07;100791.75;;;22.52
49785;BMP280;35679;38.732;-121.358;2023-04-24T06:34:56;100785.44;;;22.47
49785;BMP280;35679;38.732;-121.358;2023-04-24T06:37:46;100789.19;;;22.46
49785;BMP280;35679;38.732;-121.358;2023-04-24T06:40:35;100786.50;;;22.46
49785;BMP280;35679;38.732;-121.358;2023-04-24T06:43:25;100790.28;;;22.45
49785;BMP280;35679;38.732;-121.358;2023-04-24T06:46:14;100781.88;;;22.42
49785;BMP280;35679;38.732;-121.358;2023-04-24T06:49:03;100789.34;;;22.40
49785;BMP280;35679;38.732;-121.358;2023-04-24T06:51:53;100788.75;;;22.38
49785;BMP280;35679;38.732;-121.358;2023-04-24T06:54:42;100788.22;;;22.36
49785;BMP280;35679;38.732;-121.358;2023-04-24T06:57:31;100788.47;;;22.34
49785;BMP280;35679;38.732;-121.358;2023-04-24T07:00:24;100792.44;;;22.32
49785;BMP280;35679;38.732;-121.358;2023-04-24T07:03:13;100792.91;;;22.29
49785;BMP280;35679;38.732;-121.358;2023-04-24T07:06:04;100808.22;;;22.28
49785;BMP280;35679;38.732;-121.358;2023-04-24T07:08:54;100809.03;;;22.29
49785;BMP280;35679;38.732;-121.358;2023-04-24T07:11:47;100809.03;;;22.29
49785;BMP280;35679;38.732;-121.358;2023-04-24T07:14:37;100804.94;;;22.26
49785;BMP280;35679;38.732;-121.358;2023-04-24T07:17:27;100811.59;;;22.24
49785;BMP280;35679;38.732;-121.358;2023-04-24T07:20:16;100811.59;;;22.24
49785;BMP280;35679;38.732;-121.358;2023-04-24T07:23:05;100808.56;;;22.20
49785;BMP280;35679;38.732;-121.358;2023-04-24T07:25:55;100812.56;;;22.18
49785;BMP280;35679;38.732;-121.358;2023-04-24T07:28:44;100821.66;;;22.17
49785;BMP280;35679;38.732;-121.358;2023-04-24T07:31:33;100825.91;;;22.13
49785;BMP280;35679;38.732;-121.358;2023-04-24T07:34:22;100829.63;;;22.12
49785;BMP280;35679;38.732;-121.358;2023-04-24T07:37:12;100831.75;;;22.10
49785;BMP280;35679;38.732;-121.358;2023-04-24T07:40:01;100833.63;;;22.09
49785;BMP280;35679;38.732;-121.358;2023-04-24T07:42:51;100833.63;;;22.09
49785;BMP280;35679;38.732;-121.358;2023-04-24T07:45:40;100834.34;;;22.05
49785;BMP280;35679;38.732;-121.358;2023-04-24T07:48:30;100843.47;;;22.04
49785;BMP280;35679;38.732;-121.358;2023-04-24T07:51:19;100850.13;;;22.01
49785;BMP280;35679;38.732;-121.358;2023-04-24T07:54:08;100845.00;;;22.00
49785;BMP280;35679;38.732;-121.358;2023-04-24T07:56:58;100835.28;;;21.99
49785;BMP280;35679;38.732;-121.358;2023-04-24T07:59:47;100832.00;;;21.97
49785;BMP280;35679;38.732;-121.358;2023-04-24T08:02:37;100839.53;;;21.95
49785;BMP280;35679;38.732;-121.358;2023-04-24T08:05:26;100832.50;;;21.94
49785;BMP280;35679;38.732;-121.358;2023-04-24T08:08:17;100824.34;;;21.89
49785;BMP280;35679;38.732;-121.358;2023-04-24T08:11:06;100830.16;;;21.86
49785;BMP280;35679;38.732;-121.358;2023-04-24T08:13:56;100833.34;;;21.83
49785;BMP280;35679;38.732;-121.358;2023-04-24T08:16:45;100839.75;;;21.82
49785;BMP280;35679;38.732;-121.358;2023-04-24T08:19:34;100848.06;;;21.80
49785;BMP280;35679;38.732;-121.358;2023-04-24T08:22:24;100838.63;;;21.78
49785;BMP280;35679;38.732;-121.358;2023-04-24T08:25:13;100843.38;;;21.76
49785;BMP280;35679;38.732;-121.358;2023-04-24T08:28:03;100841.78;;;21.75
49785;BMP280;35679;38.732;-121.358;2023-04-24T08:30:53;100845.50;;;21.74
49785;BMP280;35679;38.732;-121.358;2023-04-24T08:33:43;100845.16;;;21.71
49785;BMP280;35679;38.732;-121.358;2023-04-24T08:36:34;100843.78;;;21.68
49785;BMP280;35679;38.732;-121.358;2023-04-24T08:39:34;100845.88;;;21.66
49785;BMP280;35679;38.732;-121.358;2023-04-24T08:42:23;100843.78;;;21.68
49785;BMP280;35679;38.732;-121.358;2023-04-24T08:45:13;100846.91;;;21.65
49785;BMP280;35679;38.732;-121.358;2023-04-24T08:48:04;100852.75;;;21.62
49785;BMP280;35679;38.732;-121.358;2023-04-24T08:51:07;100843.91;;;21.62
49785;BMP280;35679;38.732;-121.358;2023-04-24T08:53:57;100837.13;;;21.59
49785;BMP280;35679;38.732;-121.358;2023-04-24T08:56:48;100834.09;;;21.56
49785;BMP280;35679;38.732;-121.358;2023-04-24T08:59:38;100842.38;;;21.54
49785;BMP280;35679;38.732;-121.358;2023-04-24T09:02:28;100849.06;;;21.52
49785;BMP280;35679;38.732;-121.358;2023-04-24T09:05:22;100839.31;;;21.51
49785;BMP280;35679;38.732;-121.358;2023-04-24T09:08:17;100832.56;;;21.48
49785;BMP280;35679;38.732;-121.358;2023-04-24T09:11:07;100831.16;;;21.46
49785;BMP280;35679;38.732;-121.358;2023-04-24T09:13:57;100824.16;;;21.45
49785;BMP280;35679;38.732;-121.358;2023-04-24T09:16:47;100833.50;;;21.42
49785;BMP280;35679;38.732;-121.358;2023-04-24T09:19:37;100821.09;;;21.41
49785;BMP280;35679;38.732;-121.358;2023-04-24T09:22:30;100831.25;;;21.39
49785;BMP280;35679;38.732;-121.358;2023-04-24T09:25:20;100832.31;;;21.38
49785;BMP280;35679;38.732;-121.358;2023-04-24T09:28:10;100829.84;;;21.37
49785;BMP280;35679;38.732;-121.358;2023-04-24T09:34:00;100829.53;;;21.33
49785;BMP280;35679;38.732;-121.358;2023-04-24T09:36:53;100824.38;;;21.32
49785;BMP280;35679;38.732;-121.358;2023-04-24T09:39:42;100822.75;;;21.31
49785;BMP280;35679;38.732;-121.358;2023-04-24T09:42:32;100820.53;;;21.28
49785;BMP280;35679;38.732;-121.358;2023-04-24T09:45:21;100819.13;;;21.25
49785;BMP280;35679;38.732;-121.358;2023-04-24T09:48:10;100822.06;;;21.24
49785;BMP280;35679;38.732;-121.358;2023-04-24T09:51:02;100818.78;;;21.22
49785;BMP280;35679;38.732;-121.358;2023-04-24T09:53:52;100816.56;;;21.19
49785;BMP280;35679;38.732;-121.358;2023-04-24T09:56:49;100818.41;;;21.18
49785;BMP280;35679;38.732;-121.358;2023-04-24T09:59:46;100819.69;;;21.16
49785;BMP280;35679;38.732;-121.358;2023-04-24T10:02:35;100818.09;;;21.15
49785;BMP280;35679;38.732;-121.358;2023-04-24T10:05:28;100823.66;;;21.13
49785;BMP280;35679;38.732;-121.358;2023-04-24T10:08:18;100825.78;;;21.11
49785;BMP280;35679;38.732;-121.358;2023-04-24T10:11:07;100823.34;;;21.10
49785;BMP280;35679;38.732;-121.358;2023-04-24T10:13:57;100839.66;;;21.08
49785;BMP280;35679;38.732;-121.358;2023-04-24T10:16:48;100852.25;;;21.08
49785;BMP280;35679;38.732;-121.358;2023-04-24T10:19:37;100848.97;;;21.06
49785;BMP280;35679;38.732;-121.358;2023-04-24T10:22:28;100836.41;;;21.07
49785;BMP280;35679;38.732;-121.358;2023-04-24T10:25:23;100829.88;;;21.03
49785;BMP280;35679;38.732;-121.358;2023-04-24T10:28:14;100840.72;;;21.08
49785;BMP280;35679;38.732;-121.358;2023-04-24T10:31:03;100831.59;;;21.08
49785;BMP280;35679;38.732;-121.358;2023-04-24T10:33:53;100841.16;;;21.05
49785;BMP280;35679;38.732;-121.358;2023-04-24T10:36:49;100847.81;;;21.02
49785;BMP280;35679;38.732;-121.358;2023-04-24T10:39:42;100850.38;;;20.97
49785;BMP280;35679;38.732;-121.358;2023-04-24T10:42:32;100856.22;;;20.94
49785;BMP280;35679;38.732;-121.358;2023-04-24T10:45:23;100852.94;;;20.92
49785;BMP280;35679;38.732;-121.358;2023-04-24T10:48:15;100849.06;;;20.88
49785;BMP280;35679;38.732;-121.358;2023-04-24T10:51:04;100865.16;;;20.88
49785;BMP280;35679;38.732;-121.358;2023-04-24T10:53:57;100870.78;;;20.87
49785;BMP280;35679;38.732;-121.358;2023-04-24T10:56:46;100859.44;;;20.85
49785;BMP280;35679;38.732;-121.358;2023-04-24T10:59:36;100873.31;;;20.82
49785;BMP280;35679;38.732;-121.358;2023-04-24T11:02:36;100873.78;;;20.79
49785;BMP280;35679;38.732;-121.358;2023-04-24T11:08:45;100871.75;;;20.74
49785;BMP280;35679;38.732;-121.358;2023-04-24T11:11:36;100881.69;;;20.74
49785;BMP280;35679;38.732;-121.358;2023-04-24T11:14:26;100884.50;;;20.79
49785;BMP280;35679;38.732;-121.358;2023-04-24T11:17:28;100879.00;;;20.74
49785;BMP280;35679;38.732;-121.358;2023-04-24T11:20:23;100877.31;;;20.73
49785;BMP280;35679;38.732;-121.358;2023-04-24T11:23:15;100875.91;;;20.70
49785;BMP280;35679;38.732;-121.358;2023-04-24T11:26:21;100866.94;;;20.65
49785;BMP280;35679;38.732;-121.358;2023-04-24T11:29:11;100876.03;;;20.64
49785;BMP280;35679;38.732;-121.358;2023-04-24T11:32:17;100874.00;;;20.59
49785;BMP280;35679;38.732;-121.358;2023-04-24T11:35:21;100871.81;;;20.56
49785;BMP280;35679;38.732;-121.358;2023-04-24T11:38:17;100864.00;;;20.55
49785;BMP280;35679;38.732;-121.358;2023-04-24T11:41:11;100855.72;;;20.56
49785;BMP280;35679;38.732;-121.358;2023-04-24T11:44:03;100845.22;;;20.55
49785;BMP280;35679;38.732;-121.358;2023-04-24T11:46:55;100844.25;;;20.49
49785;BMP280;35679;38.732;-121.358;2023-04-24T11:49:45;100847.78;;;20.50
49785;BMP280;35679;38.732;-121.358;2023-04-24T11:52:39;100842.84;;;20.47
49785;BMP280;35679;38.732;-121.358;2023-04-24T11:55:29;100842.84;;;20.47
49785;BMP280;35679;38.732;-121.358;2023-04-24T11:58:24;100849.50;;;20.44
49785;BMP280;35679;38.732;-121.358;2023-04-24T12:01:15;100853.22;;;20.43
49785;BMP280;35679;38.732;-121.358;2023-04-24T12:04:04;100848.09;;;20.42
49785;BMP280;35679;38.732;-121.358;2023-04-24T12:07:03;100847.50;;;20.40
49785;BMP280;35679;38.732;-121.358;2023-04-24T12:09:58;100849.34;;;20.40
49785;BMP280;35679;38.732;-121.358;2023-04-24T12:12:51;100846.44;;;20.41
49785;BMP280;35679;38.732;-121.358;2023-04-24T12:15:41;100843.19;;;20.39
49785;BMP280;35679;38.732;-121.358;2023-04-24T12:18:30;100834.53;;;20.37
49785;BMP280;35679;38.732;-121.358;2023-04-24T12:21:23;100833.13;;;20.35
49785;BMP280;35679;38.732;-121.358;2023-04-24T12:24:15;100829.88;;;20.33
49785;BMP280;35679;38.732;-121.358;2023-04-24T12:27:19;100833.38;;;20.33
49785;BMP280;35679;38.732;-121.358;2023-04-24T12:30:15;100848.84;;;20.31
49785;BMP280;35679;38.732;-121.358;2023-04-24T12:33:04;100855.25;;;20.30
49785;BMP280;35679;38.732;-121.358;2023-04-24T12:35:54;100864.94;;;20.31
49785;BMP280;35679;38.732;-121.358;2023-04-24T12:38:44;100874.22;;;20.29
49785;BMP280;35679;38.732;-121.358;2023-04-24T12:41:35;100881.91;;;20.25
49785;BMP280;35679;38.732;-121.358;2023-04-24T12:44:34;100891.00;;;20.24
49785;BMP280;35679;38.732;-121.358;2023-04-24T12:47:26;100893.88;;;20.23
49785;BMP280;35679;38.732;-121.358;2023-04-24T12:50:15;100897.41;;;20.23
49785;BMP280;35679;38.732;-121.358;2023-04-24T12:53:06;100898.44;;;20.22
49785;BMP280;35679;38.732;-121.358;2023-04-24T12:55:56;100894.13;;;20.21
49785;BMP280;35679;38.732;-121.358;2023-04-24T12:58:45;100896.22;;;20.19
49785;BMP280;35679;38.732;-121.358;2023-04-24T13:01:35;100893.53;;;20.19
49785;BMP280;35679;38.732;-121.358;2023-04-24T13:04:24;100896.88;;;20.15
49785;BMP280;35679;38.732;-121.358;2023-04-24T13:07:14;100895.47;;;20.12
49785;BMP280;35679;38.732;-121.358;2023-04-24T13:10:03;100899.78;;;20.13
49785;BMP280;35679;38.732;-121.358;2023-04-24T13:12:53;100897.69;;;20.15
49785;BMP280;35679;38.732;-121.358;2023-04-24T13:15:42;100897.13;;;20.13
49785;BMP280;35679;38.732;-121.358;2023-04-24T13:18:31;100898.38;;;20.11
49785;BMP280;35679;38.732;-121.358;2023-04-24T13:21:21;100906.84;;;20.08
49785;BMP280;35679;38.732;-121.358;2023-04-24T13:24:10;100892.88;;;20.06
49785;BMP280;35679;38.732;-121.358;2023-04-24T13:26:59;100896.59;;;20.05
49785;BMP280;35679;38.732;-121.358;2023-04-24T13:29:49;100898.66;;;20.03
49785;BMP280;35679;38.732;-121.358;2023-04-24T13:32:38;100903.22;;;20.02
49785;BMP280;35679;38.732;-121.358;2023-04-24T13:35:28;100906.13;;;20.01
49785;BMP280;35679;38.732;-121.358;2023-04-24T13:38:17;100912.75;;;19.98
49785;BMP280;35679;38.732;-121.358;2023-04-24T13:41:06;100905.75;;;19.97
49785;BMP280;35679;38.732;-121.358;2023-04-24T13:43:56;100904.09;;;19.96
49785;BMP280;35679;38.732;-121.358;2023-04-24T13:46:47;100899.22;;;19.93
49785;BMP280;35679;38.732;-121.358;2023-04-24T13:49:37;100894.44;;;19.95
49785;BMP280;35679;38.732;-121.358;2023-04-24T13:52:26;100903.72;;;19.93
49785;BMP280;35679;38.732;-121.358;2023-04-24T13:55:15;100914.00;;;19.96
49785;BMP280;35679;38.732;-121.358;2023-04-24T13:58:05;100902.84;;;19.99
49785;BMP280;35679;38.732;-121.358;2023-04-24T14:00:55;100895.47;;;19.94
49785;BMP280;35679;38.732;-121.358;2023-04-24T14:03:44;100912.59;;;19.93
49785;BMP280;35679;38.732;-121.358;2023-04-24T14:06:34;100926.00;;;19.93
49785;BMP280;35679;38.732;-121.358;2023-04-24T14:09:23;100931.75;;;19.90
49785;BMP280;35679;38.732;-121.358;2023-04-24T14:12:13;100938.75;;;19.91
49785;BMP280;35679;38.732;-121.358;2023-04-24T14:15:05;100948.44;;;19.92
49785;BMP280;35679;38.732;-121.358;2023-04-24T14:17:55;100953.16;;;19.90
49785;BMP280;35679;38.732;-121.358;2023-04-24T14:20:44;100958.13;;;19.93
49785;BMP280;35679;38.732;-121.358;2023-04-24T14:23:34;100956.47;;;19.92
49785;BMP280;35679;38.732;-121.358;2023-04-24T14:26:23;100956.88;;;19.89
49785;BMP280;35679;38.732;-121.358;2023-04-24T14:29:13;100966.16;;;19.87
49785;BMP280;35679;38.732;-121.358;2023-04-24T14:32:03;100971.75;;;19.85
49785;BMP280;35679;38.732;-121.358;2023-04-24T14:34:52;100971.75;;;19.85
49785;BMP280;35679;38.732;-121.358;2023-04-24T14:37:42;100969.31;;;19.84
49785;BMP280;35679;38.732;-121.358;2023-04-24T14:40:31;100974.44;;;19.85
49785;BMP280;35679;38.732;-121.358;2023-04-24T14:43:41;100977.34;;;19.84
49785;BMP280;35679;38.732;-121.358;2023-04-24T14:46:31;100979.19;;;19.83
49785;BMP280;35679;38.732;-121.358;2023-04-24T14:49:21;100979.63;;;19.80
49785;BMP280;35679;38.732;-121.358;2023-04-24T14:52:10;100987.66;;;19.80
49785;BMP280;35679;38.732;-121.358;2023-04-24T14:55:00;100987.91;;;19.79
49785;BMP280;35679;38.732;-121.358;2023-04-24T14:57:49;100986.03;;;19.79
49785;BMP280;35679;38.732;-121.358;2023-04-24T15:00:38;100983.97;;;19.81
49785;BMP280;35679;38.732;-121.358;2023-04-24T15:03:28;100975.31;;;19.79
49785;BMP280;35679;38.732;-121.358;2023-04-24T15:06:18;100966.84;;;19.82
49785;BMP280;35679;38.732;-121.358;2023-04-24T15:09:08;100966.84;;;19.82
49785;BMP280;35679;38.732;-121.358;2023-04-24T15:11:58;100972.22;;;19.82
49785;BMP280;35679;38.732;-121.358;2023-04-24T15:14:48;100982.31;;;19.80
49785;BMP280;35679;38.732;-121.358;2023-04-24T15:17:37;100984.19;;;19.80
49785;BMP280;35679;38.732;-121.358;2023-04-24T15:20:26;100987.06;;;19.78
49785;BMP280;35679;38.732;-121.358;2023-04-24T15:23:16;100988.69;;;19.79
49785;BMP280;35679;38.732;-121.358;2023-04-24T15:26:05;100984.38;;;19.78
49785;BMP280;35679;38.732;-121.358;2023-04-24T15:28:54;100991.38;;;19.79
49785;BMP280;35679;38.732;-121.358;2023-04-24T15:31:44;100984.81;;;19.75
49785;BMP280;35679;38.732;-121.358;2023-04-24T15:34:34;100979.25;;;19.77
49785;BMP280;35679;38.732;-121.358;2023-04-24T15:37:23;100991.59;;;19.78